sensor_id;sensor_type;location;lat;lon;timestamp;temperature;humidity
59282;DHT22;45054;52.062;10.010;2022-10-22T00:01:36;13.00;99.90
59282;DHT22;45054;52.062;10.010;2022-10-22T00:04:01;13.00;99.90
59282;DHT22;45054;52.062;10.010;2022-10-22T00:06:27;13.00;99.90
59282;DHT22;45054;52.062;10.010;2022-10-22T00:08:53;13.00;99.90
59282;DHT22;45054;52.062;10.010;2022-10-22T00:11:19;12.90;99.90
59282;DHT22;45054;52.062;10.010;2022-10-22T00:13:45;13.00;99.90
59282;DHT22;45054;52.062;10.010;2022-10-22T00:16:11;13.00;99.90
59282;DHT22;45054;52.062;10.010;2022-10-22T00:18:38;12.90;99.90
59282;DHT22;45054;52.062;10.010;2022-10-22T00:21:05;12.90;99.90
59282;DHT22;45054;52.062;10.010;2022-10-22T00:23:31;12.90;99.90
59282;DHT22;45054;52.062;10.010;2022-10-22T00:25:57;13.00;99.90
59282;DHT22;45054;52.062;10.010;2022-10-22T00:28:22;13.00;99.90
59282;DHT22;45054;52.062;10.010;2022-10-22T00:30:54;13.00;99.90
59282;DHT22;45054;52.062;10.010;2022-10-22T00:33:20;12.90;99.90
59282;DHT22;45054;52.062;10.010;2022-10-22T00:35:47;12.90;99.90
59282;DHT22;45054;52.062;10.010;2022-10-22T00:38:13;12.90;99.90
59282;DHT22;45054;52.062;10.010;2022-10-22T00:40:38;12.90;99.90
59282;DHT22;45054;52.062;10.010;2022-10-22T00:43:04;12.90;99.90
59282;DHT22;45054;52.062;10.010;2022-10-22T00:45:30;12.90;99.90
59282;DHT22;45054;52.062;10.010;2022-10-22T00:48:00;13.00;99.90
59282;DHT22;45054;52.062;10.010;2022-10-22T00:50:29;13.00;99.90
59282;DHT22;45054;52.062;10.010;2022-10-22T00:52:57;12.90;99.90
59282;DHT22;45054;52.062;10.010;2022-10-22T00:55:24;13.00;99.90
59282;DHT22;45054;52.062;10.010;2022-10-22T00:57:50;13.00;99.90
59282;DHT22;45054;52.062;10.010;2022-10-22T01:00:17;12.90;99.90
59282;DHT22;45054;52.062;10.010;2022-10-22T01:02:42;13.00;99.90
59282;DHT22;45054;52.062;10.010;2022-10-22T01:05:09;13.00;99.90
59282;DHT22;45054;52.062;10.010;2022-10-22T01:07:38;13.00;99.90
59282;DHT22;45054;52.062;10.010;2022-10-22T01:10:11;13.00;99.90
59282;DHT22;45054;52.062;10.010;2022-10-22T01:12:44;13.10;99.90
59282;DHT22;45054;52.062;10.010;2022-10-22T01:15:21;13.10;99.90
59282;DHT22;45054;52.062;10.010;2022-10-22T01:17:53;13.00;99.90
59282;DHT22;45054;52.062;10.010;2022-10-22T01:23:23;12.90;99.90
59282;DHT22;45054;52.062;10.010;2022-10-22T01:25:57;12.80;99.90
59282;DHT22;45054;52.062;10.010;2022-10-22T01:28:43;12.80;99.90
59282;DHT22;45054;52.062;10.010;2022-10-22T01:31:12;12.80;99.90
59282;DHT22;45054;52.062;10.010;2022-10-22T01:33:39;12.80;99.90
59282;DHT22;45054;52.062;10.010;2022-10-22T01:36:07;12.80;99.90
59282;DHT22;45054;52.062;10.010;2022-10-22T01:38:33;12.80;99.90
59282;DHT22;45054;52.062;10.010;2022-10-22T01:40:59;12.80;99.90
59282;DHT22;45054;52.062;10.010;2022-10-22T01:43:25;12.80;99.90
59282;DHT22;45054;52.062;10.010;2022-10-22T01:45:55;12.80;99.90
59282;DHT22;45054;52.062;10.010;2022-10-22T01:48:33;12.80;99.90
59282;DHT22;45054;52.062;10.010;2022-10-22T01:51:15;12.80;99.90
59282;DHT22;45054;52.062;10.010;2022-10-22T01:53:51;12.80;99.90
59282;DHT22;45054;52.062;10.010;2022-10-22T01:56:34;12.70;99.90
59282;DHT22;45054;52.062;10.010;2022-10-22T01:59:05;12.60;99.90
59282;DHT22;45054;52.062;10.010;2022-10-22T02:01:40;12.60;99.90
59282;DHT22;45054;52.062;10.010;2022-10-22T02:04:12;12.60;99.90
59282;DHT22;45054;52.062;10.010;2022-10-22T02:06:42;12.50;99.90
59282;DHT22;45054;52.062;10.010;2022-10-22T02:09:08;12.50;99.90
59282;DHT22;45054;52.062;10.010;2022-10-22T02:11:35;12.60;99.90
59282;DHT22;45054;52.062;10.010;2022-10-22T02:14:02;12.60;99.90
59282;DHT22;45054;52.062;10.010;2022-10-22T02:16:35;12.60;99.90
59282;DHT22;45054;52.062;10.010;2022-10-22T02:19:05;12.60;99.90
59282;DHT22;45054;52.062;10.010;2022-10-22T02:21:32;12.50;99.90
59282;DHT22;45054;52.062;10.010;2022-10-22T02:23:57;12.50;99.90
59282;DHT22;45054;52.062;10.010;2022-10-22T02:26:29;12.50;99.90
59282;DHT22;45054;52.062;10.010;2022-10-22T02:28:58;12.50;99.90
59282;DHT22;45054;52.062;10.010;2022-10-22T02:31:30;12.50;99.90
59282;DHT22;45054;52.062;10.010;2022-10-22T02:34:01;12.50;99.90
59282;DHT22;45054;52.062;10.010;2022-10-22T02:36:28;12.50;99.90
59282;DHT22;45054;52.062;10.010;2022-10-22T02:38:54;12.60;99.90
59282;DHT22;45054;52.062;10.010;2022-10-22T02:41:20;12.50;99.90
59282;DHT22;45054;52.062;10.010;2022-10-22T02:43:49;12.50;99.90
59282;DHT22;45054;52.062;10.010;2022-10-22T02:46:14;12.50;99.90
59282;DHT22;45054;52.062;10.010;2022-10-22T02:48:40;12.50;99.90
59282;DHT22;45054;52.062;10.010;2022-10-22T02:51:07;12.50;99.90
59282;DHT22;45054;52.062;10.010;2022-10-22T02:53:33;12.60;99.90
59282;DHT22;45054;52.062;10.010;2022-10-22T02:55:59;12.60;99.90
59282;DHT22;45054;52.062;10.010;2022-10-22T02:58:24;12.70;99.90
59282;DHT22;45054;52.062;10.010;2022-10-22T03:00:50;12.70;99.90
59282;DHT22;45054;52.062;10.010;2022-10-22T03:03:16;12.70;99.90
59282;DHT22;45054;52.062;10.010;2022-10-22T03:05:41;12.70;99.90
59282;DHT22;45054;52.062;10.010;2022-10-22T03:08:08;12.70;99.90
59282;DHT22;45054;52.062;10.010;2022-10-22T03:10:34;12.70;99.90
59282;DHT22;45054;52.062;10.010;2022-10-22T03:13:00;12.60;99.90
59282;DHT22;45054;52.062;10.010;2022-10-22T03:15:25;12.60;99.90
59282;DHT22;45054;52.062;10.010;2022-10-22T03:17:51;12.50;99.90
59282;DHT22;45054;52.062;10.010;2022-10-22T03:20:17;12.50;99.90
59282;DHT22;45054;52.062;10.010;2022-10-22T03:22:43;12.50;99.90
59282;DHT22;45054;52.062;10.010;2022-10-22T03:25:12;12.50;99.90
59282;DHT22;45054;52.062;10.010;2022-10-22T03:27:39;12.50;99.90
59282;DHT22;45054;52.062;10.010;2022-10-22T03:30:07;12.50;99.90
59282;DHT22;45054;52.062;10.010;2022-10-22T03:32:32;12.50;99.90
59282;DHT22;45054;52.062;10.010;2022-10-22T03:34:58;12.40;99.90
59282;DHT22;45054;52.062;10.010;2022-10-22T03:37:24;12.40;99.90
59282;DHT22;45054;52.062;10.010;2022-10-22T03:39:51;12.40;99.90
59282;DHT22;45054;52.062;10.010;2022-10-22T03:42:18;12.40;99.90
59282;DHT22;45054;52.062;10.010;2022-10-22T03:44:44;12.40;99.90
59282;DHT22;45054;52.062;10.010;2022-10-22T03:47:10;12.40;99.90
59282;DHT22;45054;52.062;10.010;2022-10-22T03:49:35;12.30;99.90
59282;DHT22;45054;52.062;10.010;2022-10-22T03:52:05;12.40;99.90
59282;DHT22;45054;52.062;10.010;2022-10-22T03:54:31;12.40;99.90
59282;DHT22;45054;52.062;10.010;2022-10-22T03:56:56;12.50;99.90
59282;DHT22;45054;52.062;10.010;2022-10-22T03:59:23;12.50;99.90
59282;DHT22;45054;52.062;10.010;2022-10-22T04:01:49;12.50;99.90
59282;DHT22;45054;52.062;10.010;2022-10-22T04:04:15;12.40;99.90
59282;DHT22;45054;52.062;10.010;2022-10-22T04:06:40;12.40;99.90
59282;DHT22;45054;52.062;10.010;2022-10-22T04:09:06;12.40;99.90
59282;DHT22;45054;52.062;10.010;2022-10-22T04:11:31;12.40;99.90
59282;DHT22;45054;52.062;10.010;2022-10-22T04:13:57;12.40;99.90
59282;DHT22;45054;52.062;10.010;2022-10-22T04:16:24;12.40;99.90
59282;DHT22;45054;52.062;10.010;2022-10-22T04:18:50;12.40;99.90
59282;DHT22;45054;52.062;10.010;2022-10-22T04:21:17;12.40;99.90
59282;DHT22;45054;52.062;10.010;2022-10-22T04:23:44;12.40;99.90
59282;DHT22;45054;52.062;10.010;2022-10-22T04:26:09;12.30;99.90
59282;DHT22;45054;52.062;10.010;2022-10-22T04:28:35;12.30;99.90
59282;DHT22;45054;52.062;10.010;2022-10-22T04:31:07;12.30;99.90
59282;DHT22;45054;52.062;10.010;2022-10-22T04:33:34;12.30;99.90
59282;DHT22;45054;52.062;10.010;2022-10-22T04:35:59;12.30;99.90
59282;DHT22;45054;52.062;10.010;2022-10-22T04:38:30;12.30;99.90
59282;DHT22;45054;52.062;10.010;2022-10-22T04:40:55;12.30;99.90
59282;DHT22;45054;52.062;10.010;2022-10-22T04:43:21;12.30;99.90
59282;DHT22;45054;52.062;10.010;2022-10-22T04:45:46;12.20;99.90
59282;DHT22;45054;52.062;10.010;2022-10-22T04:48:13;12.20;99.90
59282;DHT22;45054;52.062;10.010;2022-10-22T04:50:41;12.20;99.90
59282;DHT22;45054;52.062;10.010;2022-10-22T04:53:06;12.20;99.90
59282;DHT22;45054;52.062;10.010;2022-10-22T04:55:32;12.30;99.90
59282;DHT22;45054;52.062;10.010;2022-10-22T04:57:57;12.30;99.90
59282;DHT22;45054;52.062;10.010;2022-10-22T05:00:23;12.40;99.90
59282;DHT22;45054;52.062;10.010;2022-10-22T05:02:49;12.40;99.90
59282;DHT22;45054;52.062;10.010;2022-10-22T05:05:15;12.40;99.90
59282;DHT22;45054;52.062;10.010;2022-10-22T05:07:42;12.40;99.90
59282;DHT22;45054;52.062;10.010;2022-10-22T05:10:08;12.40;99.90
59282;DHT22;45054;52.062;10.010;2022-10-22T05:12:34;12.40;99.90
59282;DHT22;45054;52.062;10.010;2022-10-22T05:14:59;12.40;99.90
59282;DHT22;45054;52.062;10.010;2022-10-22T05:17:25;12.40;99.90
59282;DHT22;45054;52.062;10.010;2022-10-22T05:19:51;12.40;99.90
59282;DHT22;45054;52.062;10.010;2022-10-22T05:22:16;12.40;99.90
59282;DHT22;45054;52.062;10.010;2022-10-22T05:24:43;12.30;99.90
59282;DHT22;45054;52.062;10.010;2022-10-22T05:27:09;12.40;99.90
59282;DHT22;45054;52.062;10.010;2022-10-22T05:29:35;12.40;99.90
59282;DHT22;45054;52.062;10.010;2022-10-22T05:32:00;12.40;99.90
59282;DHT22;45054;52.062;10.010;2022-10-22T05:34:26;12.40;99.90
59282;DHT22;45054;52.062;10.010;2022-10-22T05:36:52;12.40;99.90
59282;DHT22;45054;52.062;10.010;2022-10-22T05:39:17;12.40;99.90
59282;DHT22;45054;52.062;10.010;2022-10-22T05:41:44;12.50;99.90
59282;DHT22;45054;52.062;10.010;2022-10-22T05:44:11;12.50;99.90
59282;DHT22;45054;52.062;10.010;2022-10-22T05:46:38;12.50;99.90
59282;DHT22;45054;52.062;10.010;2022-10-22T05:49:05;12.40;99.90
59282;DHT22;45054;52.062;10.010;2022-10-22T05:51:32;12.40;99.90
59282;DHT22;45054;52.062;10.010;2022-10-22T05:54:00;12.40;99.90
59282;DHT22;45054;52.062;10.010;2022-10-22T05:56:27;12.40;99.90
59282;DHT22;45054;52.062;10.010;2022-10-22T05:58:55;12.40;99.90
59282;DHT22;45054;52.062;10.010;2022-10-22T06:01:23;12.30;99.90
59282;DHT22;45054;52.062;10.010;2022-10-22T06:03:51;12.30;99.90
59282;DHT22;45054;52.062;10.010;2022-10-22T06:06:19;12.40;99.90
59282;DHT22;45054;52.062;10.010;2022-10-22T06:08:46;12.40;99.90
59282;DHT22;45054;52.062;10.010;2022-10-22T06:11:12;12.40;99.90
59282;DHT22;45054;52.062;10.010;2022-10-22T06:13:38;12.50;99.90
59282;DHT22;45054;52.062;10.010;2022-10-22T06:16:05;12.40;99.90
59282;DHT22;45054;52.062;10.010;2022-10-22T06:18:32;12.40;99.90
59282;DHT22;45054;52.062;10.010;2022-10-22T06:21:03;12.40;99.90
59282;DHT22;45054;52.062;10.010;2022-10-22T06:23:28;12.40;99.90
59282;DHT22;45054;52.062;10.010;2022-10-22T06:25:58;12.40;99.90
59282;DHT22;45054;52.062;10.010;2022-10-22T06:28:24;12.40;99.90
59282;DHT22;45054;52.062;10.010;2022-10-22T06:30:49;12.40;99.90
59282;DHT22;45054;52.062;10.010;2022-10-22T06:33:16;12.40;99.90
59282;DHT22;45054;52.062;10.010;2022-10-22T06:35:42;12.40;99.90
59282;DHT22;45054;52.062;10.010;2022-10-22T06:38:08;12.50;99.90
59282;DHT22;45054;52.062;10.010;2022-10-22T06:40:33;12.50;99.90
59282;DHT22;45054;52.062;10.010;2022-10-22T06:42:59;12.50;99.90
59282;DHT22;45054;52.062;10.010;2022-10-22T06:45:25;12.50;99.90
59282;DHT22;45054;52.062;10.010;2022-10-22T06:47:50;12.60;99.90
59282;DHT22;45054;52.062;10.010;2022-10-22T06:50:18;12.60;99.90
59282;DHT22;45054;52.062;10.010;2022-10-22T06:52:43;12.70;99.90
59282;DHT22;45054;52.062;10.010;2022-10-22T06:55:09;12.70;99.90
59282;DHT22;45054;52.062;10.010;2022-10-22T06:57:35;12.80;99.90
59282;DHT22;45054;52.062;10.010;2022-10-22T07:00:01;12.90;99.90
59282;DHT22;45054;52.062;10.010;2022-10-22T07:02:27;12.90;99.90
59282;DHT22;45054;52.062;10.010;2022-10-22T07:04:52;12.90;99.90
59282;DHT22;45054;52.062;10.010;2022-10-22T07:07:19;12.90;99.90
59282;DHT22;45054;52.062;10.010;2022-10-22T07:09:45;12.80;99.90
59282;DHT22;45054;52.062;10.010;2022-10-22T07:12:10;12.90;99.90
59282;DHT22;45054;52.062;10.010;2022-10-22T07:14:37;12.80;99.90
59282;DHT22;45054;52.062;10.010;2022-10-22T07:17:02;12.70;99.90
59282;DHT22;45054;52.062;10.010;2022-10-22T07:19:28;12.70;99.90
59282;DHT22;45054;52.062;10.010;2022-10-22T07:21:54;12.70;99.90
59282;DHT22;45054;52.062;10.010;2022-10-22T07:24:21;12.70;99.90
59282;DHT22;45054;52.062;10.010;2022-10-22T07:26:46;12.70;99.90
59282;DHT22;45054;52.062;10.010;2022-10-22T07:29:12;12.70;99.90
59282;DHT22;45054;52.062;10.010;2022-10-22T07:31:38;12.70;99.90
59282;DHT22;45054;52.062;10.010;2022-10-22T07:34:04;12.70;99.90
59282;DHT22;45054;52.062;10.010;2022-10-22T07:36:29;12.60;99.90
59282;DHT22;45054;52.062;10.010;2022-10-22T07:38:57;12.70;99.90
59282;DHT22;45054;52.062;10.010;2022-10-22T07:41:25;12.70;99.90
59282;DHT22;45054;52.062;10.010;2022-10-22T07:43:51;12.70;99.90
59282;DHT22;45054;52.062;10.010;2022-10-22T07:46:16;12.80;99.90
59282;DHT22;45054;52.062;10.010;2022-10-22T07:48:42;12.70;99.90
59282;DHT22;45054;52.062;10.010;2022-10-22T07:51:08;12.80;99.90
59282;DHT22;45054;52.062;10.010;2022-10-22T07:53:34;12.80;99.90
59282;DHT22;45054;52.062;10.010;2022-10-22T07:55:59;12.90;99.90
59282;DHT22;45054;52.062;10.010;2022-10-22T07:58:26;12.90;99.90
59282;DHT22;45054;52.062;10.010;2022-10-22T08:00:54;12.90;99.90
59282;DHT22;45054;52.062;10.010;2022-10-22T08:03:20;13.00;99.90
59282;DHT22;45054;52.062;10.010;2022-10-22T08:05:46;13.00;99.90
59282;DHT22;45054;52.062;10.010;2022-10-22T08:08:13;13.10;99.90
59282;DHT22;45054;52.062;10.010;2022-10-22T08:10:39;13.20;99.90
59282;DHT22;45054;52.062;10.010;2022-10-22T08:13:06;13.30;99.90
59282;DHT22;45054;52.062;10.010;2022-10-22T08:15:33;13.40;99.90
59282;DHT22;45054;52.062;10.010;2022-10-22T08:17:59;13.50;99.90
59282;DHT22;45054;52.062;10.010;2022-10-22T08:20:25;13.70;99.90
59282;DHT22;45054;52.062;10.010;2022-10-22T08:22:50;13.80;99.90
59282;DHT22;45054;52.062;10.010;2022-10-22T08:25:16;13.90;99.90
59282;DHT22;45054;52.062;10.010;2022-10-22T08:27:42;14.00;99.90
59282;DHT22;45054;52.062;10.010;2022-10-22T08:30:09;14.10;99.90
59282;DHT22;45054;52.062;10.010;2022-10-22T08:32:36;14.20;99.90
59282;DHT22;45054;52.062;10.010;2022-10-22T08:35:02;14.30;99.90
59282;DHT22;45054;52.062;10.010;2022-10-22T08:37:28;14.40;99.90
59282;DHT22;45054;52.062;10.010;2022-10-22T08:39:54;14.50;99.90
59282;DHT22;45054;52.062;10.010;2022-10-22T08:42:46;14.70;99.90
59282;DHT22;45054;52.062;10.010;2022-10-22T08:45:18;14.80;99.90
59282;DHT22;45054;52.062;10.010;2022-10-22T08:47:59;14.80;99.90
59282;DHT22;45054;52.062;10.010;2022-10-22T08:50:32;14.80;99.90
59282;DHT22;45054;52.062;10.010;2022-10-22T08:53:01;14.80;99.90
59282;DHT22;45054;52.062;10.010;2022-10-22T08:55:29;14.80;99.90
59282;DHT22;45054;52.062;10.010;2022-10-22T08:57:59;14.70;99.90
59282;DHT22;45054;52.062;10.010;2022-10-22T09:00:30;14.70;99.90
59282;DHT22;45054;52.062;10.010;2022-10-22T09:03:09;14.70;99.90
59282;DHT22;45054;52.062;10.010;2022-10-22T09:05:47;14.60;99.90
59282;DHT22;45054;52.062;10.010;2022-10-22T09:08:19;14.60;99.90
59282;DHT22;45054;52.062;10.010;2022-10-22T09:10:48;14.60;99.90
59282;DHT22;45054;52.062;10.010;2022-10-22T09:13:17;14.60;99.90
59282;DHT22;45054;52.062;10.010;2022-10-22T09:15:45;14.60;99.90
59282;DHT22;45054;52.062;10.010;2022-10-22T09:18:18;14.60;99.90
59282;DHT22;45054;52.062;10.010;2022-10-22T09:20:52;14.60;99.90
59282;DHT22;45054;52.062;10.010;2022-10-22T09:23:26;14.70;99.90
59282;DHT22;45054;52.062;10.010;2022-10-22T09:25:53;14.70;99.90
59282;DHT22;45054;52.062;10.010;2022-10-22T09:28:21;14.80;99.90
59282;DHT22;45054;52.062;10.010;2022-10-22T09:30:46;14.80;99.90
59282;DHT22;45054;52.062;10.010;2022-10-22T09:33:14;14.90;99.90
59282;DHT22;45054;52.062;10.010;2022-10-22T09:35:47;15.00;99.90
59282;DHT22;45054;52.062;10.010;2022-10-22T09:38:17;15.00;99.90
59282;DHT22;45054;52.062;10.010;2022-10-22T09:40:44;15.00;99.90
59282;DHT22;45054;52.062;10.010;2022-10-22T09:43:12;15.00;99.90
59282;DHT22;45054;52.062;10.010;2022-10-22T09:45:38;15.00;99.90
59282;DHT22;45054;52.062;10.010;2022-10-22T09:48:11;15.00;99.90
59282;DHT22;45054;52.062;10.010;2022-10-22T09:50:41;15.00;99.90
59282;DHT22;45054;52.062;10.010;2022-10-22T09:53:15;15.00;99.90
59282;DHT22;45054;52.062;10.010;2022-10-22T09:55:42;15.10;99.90
59282;DHT22;45054;52.062;10.010;2022-10-22T09:58:11;15.40;99.90
59282;DHT22;45054;52.062;10.010;2022-10-22T10:00:38;15.60;99.90
59282;DHT22;45054;52.062;10.010;2022-10-22T10:03:03;15.80;99.90
59282;DHT22;45054;52.062;10.010;2022-10-22T10:05:30;15.90;99.90
59282;DHT22;45054;52.062;10.010;2022-10-22T10:07:56;16.00;99.90
59282;DHT22;45054;52.062;10.010;2022-10-22T10:10:34;16.10;99.90
59282;DHT22;45054;52.062;10.010;2022-10-22T10:13:10;16.20;99.90
59282;DHT22;45054;52.062;10.010;2022-10-22T10:15:47;16.30;99.90
59282;DHT22;45054;52.062;10.010;2022-10-22T10:18:24;16.30;99.90
59282;DHT22;45054;52.062;10.010;2022-10-22T10:21:00;16.30;99.90
59282;DHT22;45054;52.062;10.010;2022-10-22T10:23:34;16.30;99.90
59282;DHT22;45054;52.062;10.010;2022-10-22T10:26:06;16.40;99.90
59282;DHT22;45054;52.062;10.010;2022-10-22T10:28:47;16.50;99.90
59282;DHT22;45054;52.062;10.010;2022-10-22T10:31:19;16.60;99.90
59282;DHT22;45054;52.062;10.010;2022-10-22T10:33:56;16.70;99.90
59282;DHT22;45054;52.062;10.010;2022-10-22T10:36:31;16.80;99.90
59282;DHT22;45054;52.062;10.010;2022-10-22T10:39:05;16.90;99.90
59282;DHT22;45054;52.062;10.010;2022-10-22T10:41:44;16.90;99.90
59282;DHT22;45054;52.062;10.010;2022-10-22T10:44:26;17.00;99.90
59282;DHT22;45054;52.062;10.010;2022-10-22T10:47:02;17.00;99.90
59282;DHT22;45054;52.062;10.010;2022-10-22T10:49:33;17.00;99.90
59282;DHT22;45054;52.062;10.010;2022-10-22T10:52:05;17.10;99.90
59282;DHT22;45054;52.062;10.010;2022-10-22T10:54:40;17.10;99.90
59282;DHT22;45054;52.062;10.010;2022-10-22T10:57:16;17.20;99.90
59282;DHT22;45054;52.062;10.010;2022-10-22T11:00:00;17.20;99.90
59282;DHT22;45054;52.062;10.010;2022-10-22T11:03:01;17.30;99.90
59282;DHT22;45054;52.062;10.010;2022-10-22T11:05:35;17.30;99.90
59282;DHT22;45054;52.062;10.010;2022-10-22T11:08:06;17.40;99.90
59282;DHT22;45054;52.062;10.010;2022-10-22T11:10:38;17.50;99.90
59282;DHT22;45054;52.062;10.010;2022-10-22T11:13:12;17.50;99.90
59282;DHT22;45054;52.062;10.010;2022-10-22T11:15:39;17.70;99.90
59282;DHT22;45054;52.062;10.010;2022-10-22T11:18:13;17.70;99.90
59282;DHT22;45054;52.062;10.010;2022-10-22T11:20:48;17.80;99.90
59282;DHT22;45054;52.062;10.010;2022-10-22T11:23:17;17.70;99.90
59282;DHT22;45054;52.062;10.010;2022-10-22T11:25:47;17.60;99.90
59282;DHT22;45054;52.062;10.010;2022-10-22T11:28:19;17.40;99.90
59282;DHT22;45054;52.062;10.010;2022-10-22T11:30:50;17.30;99.90
59282;DHT22;45054;52.062;10.010;2022-10-22T11:33:21;17.20;99.90
59282;DHT22;45054;52.062;10.010;2022-10-22T11:35:49;17.20;99.90
59282;DHT22;45054;52.062;10.010;2022-10-22T11:38:17;17.10;99.90
59282;DHT22;45054;52.062;10.010;2022-10-22T11:40:50;17.10;99.90
59282;DHT22;45054;52.062;10.010;2022-10-22T11:43:28;17.10;99.90
59282;DHT22;45054;52.062;10.010;2022-10-22T11:46:08;17.10;99.90
59282;DHT22;45054;52.062;10.010;2022-10-22T11:49:02;17.20;99.90
59282;DHT22;45054;52.062;10.010;2022-10-22T11:51:31;17.20;99.90
59282;DHT22;45054;52.062;10.010;2022-10-22T11:54:00;17.20;99.90
59282;DHT22;45054;52.062;10.010;2022-10-22T11:56:28;17.30;99.90
59282;DHT22;45054;52.062;10.010;2022-10-22T11:59:03;17.30;99.90
59282;DHT22;45054;52.062;10.010;2022-10-22T12:01:43;17.40;99.90
59282;DHT22;45054;52.062;10.010;2022-10-22T12:04:20;17.40;99.90
59282;DHT22;45054;52.062;10.010;2022-10-22T12:06:55;17.40;99.90
59282;DHT22;45054;52.062;10.010;2022-10-22T12:09:22;17.50;99.90
59282;DHT22;45054;52.062;10.010;2022-10-22T12:11:49;17.60;99.90
59282;DHT22;45054;52.062;10.010;2022-10-22T12:14:19;17.70;99.90
59282;DHT22;45054;52.062;10.010;2022-10-22T12:16:47;18.00;99.90
59282;DHT22;45054;52.062;10.010;2022-10-22T12:19:17;18.10;99.90
59282;DHT22;45054;52.062;10.010;2022-10-22T12:21:52;18.10;99.90
59282;DHT22;45054;52.062;10.010;2022-10-22T12:24:22;18.00;99.90
59282;DHT22;45054;52.062;10.010;2022-10-22T12:26:48;17.90;99.90
59282;DHT22;45054;52.062;10.010;2022-10-22T12:29:17;17.80;99.90
59282;DHT22;45054;52.062;10.010;2022-10-22T12:31:45;17.80;99.90
59282;DHT22;45054;52.062;10.010;2022-10-22T12:34:16;17.70;99.90
59282;DHT22;45054;52.062;10.010;2022-10-22T12:36:42;17.60;99.90
59282;DHT22;45054;52.062;10.010;2022-10-22T12:39:12;17.60;99.90
59282;DHT22;45054;52.062;10.010;2022-10-22T12:41:39;17.60;99.90
59282;DHT22;45054;52.062;10.010;2022-10-22T12:44:05;17.60;99.90
59282;DHT22;45054;52.062;10.010;2022-10-22T12:46:33;17.70;99.90
59282;DHT22;45054;52.062;10.010;2022-10-22T12:49:01;17.70;99.90
59282;DHT22;45054;52.062;10.010;2022-10-22T12:51:27;17.80;99.90
59282;DHT22;45054;52.062;10.010;2022-10-22T12:53:54;17.70;99.90
59282;DHT22;45054;52.062;10.010;2022-10-22T12:56:24;17.90;99.90
59282;DHT22;45054;52.062;10.010;2022-10-22T12:58:54;18.10;99.90
59282;DHT22;45054;52.062;10.010;2022-10-22T13:01:21;18.40;99.90
59282;DHT22;45054;52.062;10.010;2022-10-22T13:03:50;18.70;99.90
59282;DHT22;45054;52.062;10.010;2022-10-22T13:06:24;19.10;99.90
59282;DHT22;45054;52.062;10.010;2022-10-22T13:09:04;19.40;99.90
59282;DHT22;45054;52.062;10.010;2022-10-22T13:11:32;19.70;99.90
59282;DHT22;45054;52.062;10.010;2022-10-22T13:14:01;19.80;99.90
59282;DHT22;45054;52.062;10.010;2022-10-22T13:16:27;19.80;99.90
59282;DHT22;45054;52.062;10.010;2022-10-22T13:18:54;19.50;99.90
59282;DHT22;45054;52.062;10.010;2022-10-22T13:21:28;19.10;99.90
59282;DHT22;45054;52.062;10.010;2022-10-22T13:23:59;18.80;99.90
59282;DHT22;45054;52.062;10.010;2022-10-22T13:26:30;18.60;99.90
59282;DHT22;45054;52.062;10.010;2022-10-22T13:28:56;18.70;99.90
59282;DHT22;45054;52.062;10.010;2022-10-22T13:31:24;18.90;99.90
59282;DHT22;45054;52.062;10.010;2022-10-22T13:33:54;19.10;99.90
59282;DHT22;45054;52.062;10.010;2022-10-22T13:36:21;19.10;99.90
59282;DHT22;45054;52.062;10.010;2022-10-22T13:38:47;19.20;99.90
59282;DHT22;45054;52.062;10.010;2022-10-22T13:41:18;19.20;99.90
59282;DHT22;45054;52.062;10.010;2022-10-22T13:43:44;19.10;99.90
59282;DHT22;45054;52.062;10.010;2022-10-22T13:46:09;18.80;99.90
59282;DHT22;45054;52.062;10.010;2022-10-22T13:48:35;18.60;99.90
59282;DHT22;45054;52.062;10.010;2022-10-22T13:51:03;18.40;99.90
59282;DHT22;45054;52.062;10.010;2022-10-22T13:53:29;18.30;99.90
59282;DHT22;45054;52.062;10.010;2022-10-22T13:55:55;18.20;99.90
59282;DHT22;45054;52.062;10.010;2022-10-22T13:58:22;18.20;99.90
59282;DHT22;45054;52.062;10.010;2022-10-22T14:00:49;18.10;99.90
59282;DHT22;45054;52.062;10.010;2022-10-22T14:03:17;17.90;99.90
59282;DHT22;45054;52.062;10.010;2022-10-22T14:05:44;17.60;99.90
59282;DHT22;45054;52.062;10.010;2022-10-22T14:08:13;17.30;99.90
59282;DHT22;45054;52.062;10.010;2022-10-22T14:10:39;16.90;99.90
59282;DHT22;45054;52.062;10.010;2022-10-22T14:13:05;16.60;99.90
59282;DHT22;45054;52.062;10.010;2022-10-22T14:15:31;16.30;99.90
59282;DHT22;45054;52.062;10.010;2022-10-22T14:17:58;16.20;99.90
59282;DHT22;45054;52.062;10.010;2022-10-22T14:20:26;16.10;99.90
59282;DHT22;45054;52.062;10.010;2022-10-22T14:22:53;16.00;99.90
59282;DHT22;45054;52.062;10.010;2022-10-22T14:25:22;16.00;99.90
59282;DHT22;45054;52.062;10.010;2022-10-22T14:27:48;16.10;99.90
59282;DHT22;45054;52.062;10.010;2022-10-22T14:30:15;16.10;99.90
59282;DHT22;45054;52.062;10.010;2022-10-22T14:32:41;16.10;99.90
59282;DHT22;45054;52.062;10.010;2022-10-22T14:35:10;16.10;99.90
59282;DHT22;45054;52.062;10.010;2022-10-22T14:37:36;16.10;99.90
59282;DHT22;45054;52.062;10.010;2022-10-22T14:40:02;16.00;99.90
59282;DHT22;45054;52.062;10.010;2022-10-22T14:42:29;16.00;99.90
59282;DHT22;45054;52.062;10.010;2022-10-22T14:44:55;16.20;99.90
59282;DHT22;45054;52.062;10.010;2022-10-22T14:47:21;16.30;99.90
59282;DHT22;45054;52.062;10.010;2022-10-22T14:49:46;16.60;99.90
59282;DHT22;45054;52.062;10.010;2022-10-22T14:52:12;16.80;99.90
59282;DHT22;45054;52.062;10.010;2022-10-22T14:54:38;16.80;99.90
59282;DHT22;45054;52.062;10.010;2022-10-22T14:57:04;17.00;99.90
59282;DHT22;45054;52.062;10.010;2022-10-22T14:59:31;17.10;99.90
59282;DHT22;45054;52.062;10.010;2022-10-22T15:01:56;17.40;99.90
59282;DHT22;45054;52.062;10.010;2022-10-22T15:04:22;17.60;99.90
59282;DHT22;45054;52.062;10.010;2022-10-22T15:06:48;17.70;99.90
59282;DHT22;45054;52.062;10.010;2022-10-22T15:09:13;17.80;99.90
59282;DHT22;45054;52.062;10.010;2022-10-22T15:11:39;18.10;99.90
59282;DHT22;45054;52.062;10.010;2022-10-22T15:14:05;18.60;99.90
59282;DHT22;45054;52.062;10.010;2022-10-22T15:16:32;19.30;99.90
59282;DHT22;45054;52.062;10.010;2022-10-22T15:18:57;19.90;99.90
59282;DHT22;45054;52.062;10.010;2022-10-22T15:21:23;20.30;99.90
59282;DHT22;45054;52.062;10.010;2022-10-22T15:23:49;20.20;99.90
59282;DHT22;45054;52.062;10.010;2022-10-22T15:26:15;20.10;99.90